AHY8105 UBBN-UBBB
Flight info
| Callsign | AHY8105 |
|---|---|
| Flight time | N/A |
| Altitude | 31000 |
| Route | DULAV R661 TBZ A422 PARSU N59 INSAN |
| Aircraft | A320/M-SDE3FGHIRWY/LB1 |
Departure
| Time | 2026-05-05 14:50 |
|---|---|
| Airport | Nakhchivan International Airport (UBBN) |
Arrival
| Time | N/A |
|---|---|
| Airport | Heydar Aliyev International Airport (UBBB) |
| Time | Latitude | Longitude | Altitude | Speed | Heading |
|---|---|---|---|---|---|
| 2026-05-05 14:33 | 39.19143 | 45.44839 | 2861 ft | 0 kts | 251° |
| 2026-05-05 14:37 | 39.19143 | 45.44841 | 2861 ft | 2 kts | 250° |
| 2026-05-05 14:37 | 39.19153 | 45.44871 | 2873 ft | 4 kts | 245° |
| 2026-05-05 14:38 | 39.19165 | 45.44902 | 2851 ft | 4 kts | 238° |
| 2026-05-05 14:38 | 39.19181 | 45.44932 | 2855 ft | 4 kts | 232° |
| 2026-05-05 14:38 | 39.19198 | 45.44959 | 2858 ft | 4 kts | 230° |
| 2026-05-05 14:38 | 39.19214 | 45.44986 | 2858 ft | 4 kts | 250° |
| 2026-05-05 14:39 | 39.19217 | 45.45002 | 2857 ft | 0 kts | 283° |
| 2026-05-05 14:43 | 39.19217 | 45.45000 | 2859 ft | 0 kts | 282° |
| 2026-05-05 14:44 | 39.19218 | 45.44994 | 2855 ft | 1 kts | 282° |
| 2026-05-05 14:44 | 39.19218 | 45.44993 | 2855 ft | 0 kts | 282° |
| 2026-05-05 14:44 | 39.19222 | 45.44973 | 2858 ft | 8 kts | 291° |
| 2026-05-05 14:44 | 39.19269 | 45.44918 | 2857 ft | 6 kts | 319° |
| 2026-05-05 14:45 | 39.19288 | 45.44897 | 2861 ft | 4 kts | 319° |
| 2026-05-05 14:45 | 39.19310 | 45.44873 | 2862 ft | 7 kts | 319° |
| 2026-05-05 14:45 | 39.19340 | 45.44838 | 2862 ft | 4 kts | 317° |
| 2026-05-05 14:45 | 39.19357 | 45.44816 | 2863 ft | 5 kts | 315° |
| 2026-05-05 14:46 | 39.19405 | 45.44760 | 2864 ft | 8 kts | 318° |
| 2026-05-05 14:46 | 39.19442 | 45.44719 | 2864 ft | 6 kts | 318° |
| 2026-05-05 14:46 | 39.19470 | 45.44704 | 2865 ft | 6 kts | 2° |
| 2026-05-05 14:46 | 39.19517 | 45.44758 | 2865 ft | 9 kts | 49° |
| 2026-05-05 14:47 | 39.19565 | 45.44805 | 2864 ft | 8 kts | 13° |
| 2026-05-05 14:47 | 39.19604 | 45.44791 | 2865 ft | 4 kts | 327° |
| 2026-05-05 14:47 | 39.19649 | 45.44735 | 2867 ft | 13 kts | 317° |
| 2026-05-05 14:47 | 39.19707 | 45.44667 | 2868 ft | 10 kts | 318° |
| 2026-05-05 14:48 | 39.19755 | 45.44612 | 2869 ft | 8 kts | 318° |
| 2026-05-05 14:48 | 39.19787 | 45.44574 | 2870 ft | 4 kts | 316° |
| 2026-05-05 14:48 | 39.19800 | 45.44540 | 2870 ft | 10 kts | 282° |
| 2026-05-05 14:48 | 39.19827 | 45.44477 | 2871 ft | 7 kts | 351° |
| 2026-05-05 14:49 | 39.19845 | 45.44505 | 2871 ft | 5 kts | 92° |
| 2026-05-05 14:49 | 39.19820 | 45.44537 | 2871 ft | 6 kts | 138° |
| 2026-05-05 14:49 | 39.19730 | 45.44640 | 2868 ft | 43 kts | 138° |
| 2026-05-05 14:49 | 39.19281 | 45.45166 | 2858 ft | 114 kts | 137° |
| 2026-05-05 14:50 | 39.18547 | 45.46023 | 2859 ft | 164 kts | 140° |
| 2026-05-05 14:50 | 39.17682 | 45.47006 | 3509 ft | 166 kts | 139° |
| 2026-05-05 14:50 | 39.16860 | 45.47966 | 4202 ft | 167 kts | 142° |
| 2026-05-05 14:50 | 39.16226 | 45.48710 | 4429 ft | 179 kts | 142° |
| 2026-05-05 14:51 | 39.14839 | 45.50141 | 4661 ft | 208 kts | 153° |
| 2026-05-05 14:51 | 39.13497 | 45.51072 | 4942 ft | 231 kts | 155° |
| 2026-05-05 14:51 | 39.11991 | 45.52071 | 5306 ft | 253 kts | 155° |
| 2026-05-05 14:51 | 39.10411 | 45.53112 | 6003 ft | 260 kts | 155° |
| 2026-05-05 14:52 | 39.08776 | 45.54189 | 6814 ft | 264 kts | 155° |
| 2026-05-05 14:52 | 39.07127 | 45.55278 | 7639 ft | 268 kts | 155° |
| 2026-05-05 14:52 | 39.05460 | 45.56383 | 8440 ft | 273 kts | 155° |
| 2026-05-05 14:52 | 39.03761 | 45.57511 | 9275 ft | 276 kts | 155° |
| 2026-05-05 14:53 | 39.02049 | 45.58649 | 10005 ft | 280 kts | 155° |
| 2026-05-05 14:53 | 39.00271 | 45.59828 | 10431 ft | 297 kts | 156° |
| 2026-05-05 14:53 | 38.98361 | 45.61088 | 10640 ft | 321 kts | 156° |
| 2026-05-05 14:53 | 38.96302 | 45.62447 | 10795 ft | 344 kts | 155° |
| 2026-05-05 14:54 | 38.94140 | 45.63890 | 11205 ft | 356 kts | 154° |
| 2026-05-05 14:54 | 38.91957 | 45.65434 | 11874 ft | 360 kts | 153° |
| 2026-05-05 14:54 | 38.89795 | 45.67021 | 12540 ft | 365 kts | 153° |
| 2026-05-05 14:54 | 38.87590 | 45.68664 | 13221 ft | 367 kts | 154° |
| 2026-05-05 14:55 | 38.85380 | 45.70312 | 13901 ft | 369 kts | 154° |
| 2026-05-05 14:55 | 38.83066 | 45.72024 | 14544 ft | 372 kts | 154° |
| 2026-05-05 14:55 | 38.80822 | 45.73667 | 15169 ft | 374 kts | 155° |
| 2026-05-05 14:55 | 38.78553 | 45.75322 | 15826 ft | 375 kts | 155° |
| 2026-05-05 14:56 | 38.76281 | 45.76981 | 16485 ft | 375 kts | 155° |
| 2026-05-05 14:56 | 38.74008 | 45.78642 | 17059 ft | 378 kts | 156° |
| 2026-05-05 14:56 | 38.71711 | 45.80314 | 17664 ft | 380 kts | 156° |
| 2026-05-05 14:56 | 38.69408 | 45.81985 | 18276 ft | 382 kts | 156° |
| 2026-05-05 14:57 | 38.67084 | 45.83668 | 18773 ft | 385 kts | 157° |
| 2026-05-05 14:57 | 38.64767 | 45.85343 | 19283 ft | 387 kts | 157° |
| 2026-05-05 14:57 | 38.62397 | 45.87057 | 19823 ft | 389 kts | 157° |
| 2026-05-05 14:57 | 38.60037 | 45.88765 | 20328 ft | 391 kts | 157° |
| 2026-05-05 14:58 | 38.57659 | 45.90486 | 20791 ft | 393 kts | 158° |
| 2026-05-05 14:58 | 38.55280 | 45.92205 | 21315 ft | 394 kts | 158° |
| 2026-05-05 14:58 | 38.52920 | 45.93909 | 21781 ft | 396 kts | 158° |
| 2026-05-05 14:58 | 38.50516 | 45.95644 | 22228 ft | 399 kts | 158° |
| 2026-05-05 14:59 | 38.48091 | 45.97395 | 22696 ft | 401 kts | 159° |
| 2026-05-05 14:59 | 38.45667 | 45.99148 | 23133 ft | 403 kts | 159° |
| 2026-05-05 14:59 | 38.43218 | 46.00918 | 23502 ft | 405 kts | 159° |
| 2026-05-05 14:59 | 38.40770 | 46.02684 | 23841 ft | 406 kts | 159° |
| 2026-05-05 15:00 | 38.38301 | 46.04459 | 24158 ft | 408 kts | 159° |
| 2026-05-05 15:00 | 38.36657 | 46.05637 | 24355 ft | 409 kts | 159° |
| 2026-05-05 15:00 | 38.33324 | 46.08022 | 24792 ft | 412 kts | 159° |
| 2026-05-05 15:00 | 38.30827 | 46.09808 | 25099 ft | 414 kts | 159° |
| 2026-05-05 15:01 | 38.28312 | 46.11611 | 25380 ft | 416 kts | 159° |
| 2026-05-05 15:01 | 38.25852 | 46.13623 | 25636 ft | 428 kts | 149° |
| 2026-05-05 15:01 | 38.23799 | 46.16456 | 25937 ft | 449 kts | 133° |
| 2026-05-05 15:01 | 38.22426 | 46.20064 | 26181 ft | 473 kts | 115° |
| 2026-05-05 15:02 | 38.21974 | 46.24356 | 26419 ft | 497 kts | 94° |
| 2026-05-05 15:02 | 38.22648 | 46.28737 | 26640 ft | 516 kts | 73° |
| 2026-05-05 15:02 | 38.24417 | 46.32752 | 26866 ft | 529 kts | 53° |
| 2026-05-05 15:02 | 38.26910 | 46.36225 | 27079 ft | 533 kts | 47° |
| 2026-05-05 15:03 | 38.29582 | 46.39525 | 27289 ft | 536 kts | 44° |
| 2026-05-05 15:03 | 38.32345 | 46.42715 | 27540 ft | 538 kts | 42° |
| 2026-05-05 15:03 | 38.35146 | 46.45863 | 27855 ft | 537 kts | 42° |
| 2026-05-05 15:03 | 38.37901 | 46.48977 | 28149 ft | 536 kts | 43° |
| 2026-05-05 15:04 | 38.40657 | 46.52171 | 28485 ft | 535 kts | 44° |
| 2026-05-05 15:04 | 38.43374 | 46.55414 | 28815 ft | 535 kts | 44° |
| 2026-05-05 15:04 | 38.46065 | 46.58695 | 29050 ft | 537 kts | 44° |
| 2026-05-05 15:04 | 38.48755 | 46.62009 | 29322 ft | 537 kts | 45° |
| 2026-05-05 15:05 | 38.54138 | 46.68632 | 29939 ft | 537 kts | 44° |
| 2026-05-05 15:05 | 38.56832 | 46.71923 | 30252 ft | 536 kts | 44° |
| 2026-05-05 15:05 | 38.59538 | 46.75207 | 30460 ft | 538 kts | 44° |
| 2026-05-05 15:06 | 38.62215 | 46.78442 | 30675 ft | 539 kts | 44° |
| 2026-05-05 15:06 | 38.64988 | 46.81791 | 30883 ft | 539 kts | 44° |
| 2026-05-05 15:06 | 38.67686 | 46.85060 | 30917 ft | 542 kts | 44° |
| 2026-05-05 15:07 | 38.73167 | 46.91728 | 30915 ft | 543 kts | 44° |
| 2026-05-05 15:07 | 38.78629 | 46.98394 | 30911 ft | 543 kts | 44° |
| 2026-05-05 15:08 | 38.84095 | 47.05081 | 30891 ft | 542 kts | 44° |
| 2026-05-05 15:08 | 38.89549 | 47.11761 | 30914 ft | 541 kts | 44° |
| 2026-05-05 15:09 | 38.94980 | 47.18432 | 30911 ft | 540 kts | 44° |
| 2026-05-05 15:09 | 39.00367 | 47.25049 | 30888 ft | 539 kts | 44° |
| 2026-05-05 15:10 | 39.05775 | 47.31713 | 30919 ft | 539 kts | 44° |
| 2026-05-05 15:10 | 39.11061 | 47.38246 | 30905 ft | 539 kts | 44° |
| 2026-05-05 15:11 | 39.16448 | 47.44940 | 30903 ft | 538 kts | 45° |
| 2026-05-05 15:11 | 39.21835 | 47.51645 | 30907 ft | 538 kts | 45° |
| 2026-05-05 15:12 | 39.27228 | 47.58343 | 30886 ft | 537 kts | 45° |
| 2026-05-05 15:12 | 39.32569 | 47.64981 | 30905 ft | 537 kts | 44° |
| 2026-05-05 15:13 | 39.37935 | 47.71687 | 30900 ft | 536 kts | 45° |
| 2026-05-05 15:13 | 39.42416 | 47.77315 | 30907 ft | 536 kts | 45° |
| 2026-05-05 15:14 | 39.47748 | 47.84018 | 30880 ft | 535 kts | 45° |
| 2026-05-05 15:14 | 39.53089 | 47.90734 | 30830 ft | 535 kts | 45° |
| 2026-05-05 15:15 | 39.58163 | 47.97792 | 30828 ft | 532 kts | 56° |
| 2026-05-05 15:15 | 39.62040 | 48.05881 | 30844 ft | 529 kts | 62° |
| 2026-05-05 15:16 | 39.65670 | 48.14243 | 30851 ft | 528 kts | 65° |
| 2026-05-05 15:16 | 39.69175 | 48.23212 | 30888 ft | 527 kts | 67° |
| 2026-05-05 15:17 | 39.75290 | 48.38963 | 30907 ft | 527 kts | 66° |
| 2026-05-05 15:17 | 39.82007 | 48.55847 | 30911 ft | 526 kts | 66° |
| 2026-05-05 15:18 | 39.85771 | 48.65431 | 30768 ft | 519 kts | 66° |
| 2026-05-05 15:18 | 39.87370 | 48.69503 | 30587 ft | 504 kts | 66° |
| 2026-05-05 15:18 | 39.88958 | 48.73545 | 30468 ft | 486 kts | 67° |
| 2026-05-05 15:18 | 39.90445 | 48.77330 | 30104 ft | 469 kts | 67° |
| 2026-05-05 15:19 | 39.91925 | 48.81114 | 29391 ft | 459 kts | 67° |
| 2026-05-05 15:19 | 39.93365 | 48.84812 | 28592 ft | 452 kts | 67° |
| 2026-05-05 15:19 | 39.94753 | 48.88389 | 27824 ft | 445 kts | 68° |
| 2026-05-05 15:19 | 39.96144 | 48.91969 | 27058 ft | 440 kts | 68° |
| 2026-05-05 15:20 | 39.97518 | 48.95513 | 26311 ft | 436 kts | 68° |
| 2026-05-05 15:20 | 39.98876 | 48.99016 | 25577 ft | 432 kts | 68° |
| 2026-05-05 15:20 | 40.00225 | 49.02488 | 24838 ft | 427 kts | 68° |
| 2026-05-05 15:20 | 40.01563 | 49.05940 | 24113 ft | 424 kts | 68° |
| 2026-05-05 15:21 | 40.02900 | 49.09395 | 23351 ft | 419 kts | 68° |
| 2026-05-05 15:21 | 40.04226 | 49.12828 | 22554 ft | 415 kts | 68° |
| 2026-05-05 15:21 | 40.05514 | 49.16172 | 21791 ft | 411 kts | 67° |
| 2026-05-05 15:21 | 40.06808 | 49.19531 | 21068 ft | 406 kts | 67° |
| 2026-05-05 15:22 | 40.08075 | 49.22822 | 20211 ft | 406 kts | 67° |
| 2026-05-05 15:22 | 40.09343 | 49.26128 | 19296 ft | 409 kts | 66° |
| 2026-05-05 15:22 | 40.10594 | 49.29424 | 18408 ft | 410 kts | 69° |
| 2026-05-05 15:22 | 40.11478 | 49.32967 | 17394 ft | 404 kts | 85° |
| 2026-05-05 15:23 | 40.11751 | 49.36522 | 16433 ft | 399 kts | 91° |
| 2026-05-05 15:23 | 40.11939 | 49.40327 | 15428 ft | 398 kts | 91° |
| 2026-05-05 15:23 | 40.12144 | 49.44244 | 14436 ft | 397 kts | 90° |
| 2026-05-05 15:23 | 40.12327 | 49.47683 | 13568 ft | 394 kts | 90° |
| 2026-05-05 15:24 | 40.12516 | 49.51205 | 12864 ft | 384 kts | 89° |
| 2026-05-05 15:24 | 40.12701 | 49.54644 | 12201 ft | 373 kts | 89° |
| 2026-05-05 15:24 | 40.12878 | 49.57963 | 11554 ft | 362 kts | 89° |
| 2026-05-05 15:24 | 40.13045 | 49.61211 | 10911 ft | 352 kts | 89° |
| 2026-05-05 15:25 | 40.13202 | 49.64361 | 10293 ft | 343 kts | 89° |
| 2026-05-05 15:25 | 40.13353 | 49.67429 | 9669 ft | 335 kts | 88° |
| 2026-05-05 15:25 | 40.13499 | 49.70391 | 9005 ft | 327 kts | 89° |
| 2026-05-05 15:25 | 40.13464 | 49.73352 | 8331 ft | 315 kts | 104° |
| 2026-05-05 15:26 | 40.12813 | 49.76030 | 7694 ft | 305 kts | 111° |
| 2026-05-05 15:26 | 40.12581 | 49.78746 | 7152 ft | 302 kts | 81° |
| 2026-05-05 15:26 | 40.13413 | 49.81156 | 6992 ft | 283 kts | 54° |
| 2026-05-05 15:26 | 40.14682 | 49.83016 | 6734 ft | 268 kts | 49° |
| 2026-05-05 15:27 | 40.15839 | 49.84726 | 6447 ft | 258 kts | 52° |
| 2026-05-05 15:27 | 40.17012 | 49.86581 | 6110 ft | 254 kts | 53° |
| 2026-05-05 15:27 | 40.18108 | 49.88360 | 5798 ft | 253 kts | 53° |
| 2026-05-05 15:27 | 40.19197 | 49.90139 | 5483 ft | 251 kts | 53° |
| 2026-05-05 15:28 | 40.20291 | 49.91927 | 5159 ft | 250 kts | 52° |
| 2026-05-05 15:28 | 40.21367 | 49.93677 | 4844 ft | 248 kts | 52° |
| 2026-05-05 15:28 | 40.22439 | 49.95414 | 4520 ft | 247 kts | 52° |
| 2026-05-05 15:28 | 40.23519 | 49.97159 | 4192 ft | 245 kts | 51° |
| 2026-05-05 15:29 | 40.24560 | 49.98840 | 3925 ft | 240 kts | 50° |
| 2026-05-05 15:29 | 40.25603 | 50.00524 | 3677 ft | 236 kts | 49° |
| 2026-05-05 15:29 | 40.27560 | 50.03685 | 3206 ft | 227 kts | 49° |
| 2026-05-05 15:29 | 40.29301 | 50.06495 | 2753 ft | 220 kts | 49° |
| 2026-05-05 15:30 | 40.30410 | 50.07811 | 2502 ft | 214 kts | 25° |
| 2026-05-05 15:30 | 40.31827 | 50.08232 | 2245 ft | 210 kts | 356° |
| 2026-05-05 15:30 | 40.33259 | 50.07870 | 2054 ft | 210 kts | 348° |
| 2026-05-05 15:30 | 40.34627 | 50.07497 | 1996 ft | 197 kts | 350° |
| 2026-05-05 15:31 | 40.35938 | 50.07144 | 1923 ft | 186 kts | 348° |
| 2026-05-05 15:31 | 40.37107 | 50.06794 | 1738 ft | 171 kts | 348° |
| 2026-05-05 15:31 | 40.38223 | 50.06449 | 1515 ft | 153 kts | 347° |
| 2026-05-05 15:31 | 40.39224 | 50.06138 | 1315 ft | 140 kts | 348° |
| 2026-05-05 15:32 | 40.40163 | 50.05850 | 1118 ft | 136 kts | 347° |
| 2026-05-05 15:32 | 40.40766 | 50.05664 | 1008 ft | 134 kts | 347° |
| 2026-05-05 15:32 | 40.41651 | 50.05386 | 838 ft | 133 kts | 348° |
| 2026-05-05 15:32 | 40.42559 | 50.05103 | 648 ft | 135 kts | 349° |
| 2026-05-05 15:33 | 40.43483 | 50.04803 | 453 ft | 136 kts | 347° |
| 2026-05-05 15:33 | 40.44412 | 50.04510 | 321 ft | 134 kts | 349° |
| 2026-05-05 15:33 | 40.45352 | 50.04222 | 124 ft | 135 kts | 348° |
| 2026-05-05 15:33 | 40.46207 | 50.03962 | 14 ft | 122 kts | 347° |